Urb El Salvador, Puerto Rico
Current Conditions -  °F | °C
As of 12:50 PM on Wednesday 26 Nov 2014 (Local Time) from TJIG Reporting Station
Broken Clouds Broken Clouds  
Wind Chill: 84°   Ceiling: 10000
Heat Index: 91°   Visibility: 10mi
Dew Point: 73°   Wind: 18mph
Humidity: 70%   Direction: 90°E
Pressure: 30.03"   Gusts: NA
Location:  18.3905°N, 66.0903°W
Report Text: TJIG 261650Z 09016KT 10SM SCT030 BKN100 29/23 A3003 RMK RY09 IN USE ATIS H
Loading
Personal Weather Stations






























Interactive Weather Map New forecast layout! Learn more

10-Day Weather Forecast

Advertisements
Track Severe Weather on mobile